Time;durP1;ratioP1;P1;durP2;ratioP2;P2;SDS_P1;SDS_P2;PMS_P1;PMS_P2;Temp;Humidity;BMP_temperature;BMP_pressure;BME280_temperature;BME280_humidity;BME280_pressure;Samples;Min_cycle;Max_cycle;Signal;HPM_P1;HPM_P2
2022/09/04 00:02:54;;;;;;;1.83;1.02;;;;;;;15.81;57.97;101279.38;4977554;28;20045;-81
2022/09/04 00:05:26;;;;;;;2.03;1.13;;;;;;;15.73;59.00;101276.97;5011063;28;20487;-81
2022/09/04 00:08:18;;;;;;;2.65;1.30;;;;;;;15.75;57.76;101272.44;4979540;28;20033;-82
2022/09/04 00:10:59;;;;;;;1.65;1.10;;;;;;;15.70;58.23;101266.38;5010410;28;21529;-82
2022/09/04 00:13:31;;;;;;;1.48;1.05;;;;;;;15.58;60.00;101266.75;4970622;28;20046;-82
2022/09/04 00:16:07;;;;;;;2.20;1.00;;;;;;;15.67;58.73;101269.16;4989285;28;20950;-80
2022/09/04 00:18:47;;;;;;;2.72;1.30;;;;;;;15.58;59.61;101272.09;5006736;28;20072;-80
2022/09/04 00:21:30;;;;;;;1.58;1.02;;;;;;;15.44;59.29;101274.28;4988222;28;20744;-80
2022/09/04 00:23:59;;;;;;;1.42;1.20;;;;;;;15.56;59.07;101279.25;4992166;28;20038;-81
2022/09/04 00:26:32;;;;;;;2.30;1.13;;;;;;;15.53;61.51;101278.47;4990482;28;20124;-80
2022/09/04 00:29:05;;;;;;;1.35;1.08;;;;;;;15.55;60.37;101276.63;4971144;28;20046;-80
2022/09/04 00:31:38;;;;;;;1.60;1.10;;;;;;;15.64;58.04;101279.06;4993387;28;20042;-81
2022/09/04 00:34:32;;;;;;;1.70;1.17;;;;;;;15.62;58.61;101279.06;4979532;28;20057;-84
2022/09/04 00:37:03;;;;;;;1.10;0.90;;;;;;;15.56;61.00;101278.38;4992478;28;20053;-80
2022/09/04 00:39:37;;;;;;;1.85;1.05;;;;;;;15.59;57.96;101283.59;4980376;28;20309;-80
2022/09/04 00:42:07;;;;;;;3.17;1.27;;;;;;;15.60;58.13;101288.00;5004667;28;20046;-81
2022/09/04 00:45:01;;;;;;;1.50;1.10;;;;;;;15.48;58.71;101281.28;4994222;28;20045;-81
2022/09/04 00:47:55;;;;;;;2.00;1.20;;;;;;;15.54;58.14;101281.06;4995042;28;20105;-82
2022/09/04 00:50:41;;;;;;;1.40;1.20;;;;;;;15.46;59.23;101285.75;4979634;28;20426;-84
2022/09/04 00:53:26;;;;;;;2.20;1.10;;;;;;;15.42;58.89;101294.78;4974880;28;20042;-83
2022/09/04 00:56:26;;;;;;;2.25;1.05;;;;;;;15.41;58.61;101293.03;5002692;28;20049;-81
2022/09/04 00:59:14;;;;;;;2.90;1.05;;;;;;;15.36;59.90;101293.16;4998805;28;20096;-80
2022/09/04 01:01:43;;;;;;;1.98;1.20;;;;;;;15.40;59.13;101293.97;4991570;28;20038;-82
2022/09/04 01:04:32;;;;;;;1.70;0.90;;;;;;;15.49;58.72;101288.34;4974355;28;20068;-81
2022/09/04 01:07:21;;;;;;;3.80;1.42;;;;;;;15.44;60.48;101295.59;4975672;28;20406;-81
2022/09/04 01:10:05;;;;;;;1.77;1.20;;;;;;;15.23;62.51;101285.59;5009500;28;20699;-81
2022/09/04 01:13:03;;;;;;;1.60;1.00;;;;;;;15.10;60.96;101290.41;5008152;28;20041;-82
2022/09/04 01:15:40;;;;;;;1.50;1.10;;;;;;;15.15;61.06;101292.03;4983143;28;20060;-82
2022/09/04 01:18:29;;;;;;;2.08;1.30;;;;;;;15.20;61.62;101294.53;4975850;28;20052;-82
2022/09/04 01:21:46;;;;;;;1.45;1.00;;;;;;;15.09;62.46;101291.31;5006809;28;20787;-82
2022/09/04 01:24:18;;;;;;;1.65;1.20;;;;;;;15.19;59.47;101292.78;4983819;28;20124;-83
2022/09/04 01:27:09;;;;;;;1.63;1.00;;;;;;;15.19;60.63;101284.81;4986369;28;20442;-82
2022/09/04 01:29:59;;;;;;;1.25;1.00;;;;;;;15.12;61.16;101291.22;5001047;28;20077;-82
2022/09/04 01:33:09;;;;;;;1.77;1.20;;;;;;;15.04;63.18;101296.75;4990275;28;20050;-81
2022/09/04 01:36:04;;;;;;;1.08;0.98;;;;;;;14.96;62.84;101296.09;4989509;28;20034;-83
2022/09/04 01:38:53;;;;;;;1.83;1.00;;;;;;;14.90;62.37;101288.31;4995593;28;20037;-81
2022/09/04 01:41:28;;;;;;;2.05;1.50;;;;;;;14.89;62.30;101297.22;4990943;28;20413;-82
2022/09/04 01:43:54;;;;;;;;;;;;;;;14.88;62.97;101306.09;4997149;28;20434;-82
2022/09/04 01:46:46;;;;;;;2.17;1.20;;;;;;;14.97;62.04;101297.00;4995198;28;19967;-83
2022/09/04 01:49:40;;;;;;;2.45;1.10;;;;;;;14.71;64.06;101306.56;4976970;28;20052;-82
2022/09/04 01:52:32;;;;;;;1.60;1.10;;;;;;;14.78;62.51;101304.63;4995460;28;20104;-82
2022/09/04 01:55:06;;;;;;;1.90;1.45;;;;;;;14.69;63.79;101305.72;4993950;28;20057;-82
2022/09/04 01:58:00;;;;;;;1.88;1.10;;;;;;;14.46;66.08;101301.06;4993500;28;20046;-82
2022/09/04 02:00:31;;;;;;;1.35;1.00;;;;;;;14.30;66.71;101308.53;5004933;28;20046;-82
2022/09/04 02:03:07;;;;;;;1.52;1.15;;;;;;;14.28;67.00;101310.31;4975118;28;20042;-82
2022/09/04 02:06:05;;;;;;;2.05;1.00;;;;;;;14.32;66.45;101312.00;5007778;28;20041;-85
2022/09/04 02:09:09;;;;;;;2.13;1.30;;;;;;;14.20;68.66;101306.09;4995701;28;20052;-82
2022/09/04 02:11:39;;;;;;;1.10;0.90;;;;;;;14.16;67.04;101315.09;4991583;28;20042;-82
2022/09/04 02:14:20;;;;;;;2.08;1.20;;;;;;;14.09;67.63;101309.91;4993573;28;20057;-84
2022/09/04 02:16:57;;;;;;;1.60;1.30;;;;;;;14.05;67.27;101310.91;4975167;28;20045;-82
2022/09/04 02:20:02;;;;;;;1.85;1.15;;;;;;;13.84;67.72;101302.56;4994207;28;20041;-83
2022/09/04 02:22:40;;;;;;;1.40;1.20;;;;;;;13.80;70.11;101307.09;4990546;28;20827;-82
2022/09/04 02:25:24;;;;;;;1.88;0.95;;;;;;;13.76;70.31;101306.28;4991995;28;20034;-82
2022/09/04 02:27:58;;;;;;;1.50;1.25;;;;;;;13.71;70.73;101302.00;4997790;28;20415;-82
2022/09/04 02:30:35;;;;;;;1.70;1.13;;;;;;;13.75;69.71;101301.88;5009264;28;20045;-83
2022/09/04 02:33:15;;;;;;;1.35;1.05;;;;;;;13.58;70.40;101305.84;4994876;28;20394;-82
2022/09/04 02:35:47;;;;;;;2.22;1.33;;;;;;;13.56;69.67;101308.53;4988919;28;20048;-81
2022/09/04 02:38:17;;;;;;;2.67;1.00;;;;;;;13.41;70.51;101307.06;5006073;28;20128;-83
2022/09/04 02:40:59;;;;;;;1.30;1.20;;;;;;;13.52;68.75;101305.06;4993970;28;20045;-82
2022/09/04 02:43:38;;;;;;;1.85;1.30;;;;;;;13.34;69.68;101302.81;5011719;28;20041;-82
2022/09/04 02:46:20;;;;;;;1.73;1.20;;;;;;;13.22;70.27;101306.59;4988564;28;20035;-82
2022/09/04 02:49:14;;;;;;;3.55;1.30;;;;;;;13.24;69.33;101312.75;4980088;28;20073;-81
2022/09/04 02:52:08;;;;;;;1.65;1.10;;;;;;;13.14;71.17;101310.28;4993661;28;20410;-81
2022/09/04 02:55:03;;;;;;;4.10;1.67;;;;;;;13.15;69.84;101304.06;4974208;28;20038;-82
2022/09/04 02:57:59;;;;;;;1.77;1.45;;;;;;;12.96;72.57;101312.41;5009685;28;20128;-82
2022/09/04 03:00:45;;;;;;;1.27;1.02;;;;;;;12.88;72.99;101310.81;4986781;28;20034;-82
2022/09/04 03:03:18;;;;;;;1.67;1.20;;;;;;;12.80;74.59;101318.03;4986396;28;20040;-83
2022/09/04 03:06:06;;;;;;;1.50;1.20;;;;;;;12.64;73.60;101313.03;4998140;28;20038;-81
2022/09/04 03:08:38;;;;;;;1.67;1.00;;;;;;;12.85;70.94;101319.69;5008233;28;20061;-82
2022/09/04 03:11:16;;;;;;;3.33;1.20;;;;;;;12.78;73.60;101318.09;4992804;28;20042;-82
2022/09/04 03:13:55;;;;;;;2.38;1.20;;;;;;;12.74;74.12;101315.50;4979289;28;20048;-82
2022/09/04 03:16:30;;;;;;;1.67;1.23;;;;;;;12.54;75.56;101321.19;4988295;28;20034;-83
2022/09/04 03:19:27;;;;;;;1.52;1.10;;;;;;;12.53;75.96;101317.66;4991989;28;20041;-82
2022/09/04 03:22:37;;;;;;;3.35;1.27;;;;;;;12.39;77.74;101319.66;4968666;28;20708;-82
2022/09/04 03:25:22;;;;;;;1.70;1.10;;;;;;;12.33;77.05;101317.13;4959699;28;20491;-81
2022/09/04 03:27:49;;;;;;;1.40;1.25;;;;;;;12.37;76.96;101325.00;5002397;28;20046;-81
2022/09/04 03:30:16;;;;;;;1.83;1.17;;;;;;;12.20;77.90;101324.41;4990597;28;20410;-81
2022/09/04 03:33:06;;;;;;;2.42;1.40;;;;;;;12.28;79.16;101324.28;4994868;28;20042;-81
2022/09/04 03:35:52;;;;;;;1.80;1.40;;;;;;;12.14;78.36;101336.88;5000106;28;20045;-81
2022/09/04 03:39:08;;;;;;;1.50;1.20;;;;;;;11.98;80.29;101331.81;4970089;28;20046;-81
2022/09/04 03:41:44;;;;;;;;;;;;;;;12.02;79.98;101337.94;4957053;28;20487;-81
2022/09/04 03:44:30;;;;;;;1.65;0.88;;;;;;;11.83;82.26;101329.41;5004566;28;20036;-80
2022/09/04 03:47:27;;;;;;;1.58;1.00;;;;;;;11.61;81.51;101335.88;4975522;28;20041;-83
2022/09/04 03:50:13;;;;;;;1.70;1.20;;;;;;;11.65;82.88;101340.22;5010986;28;20042;-80
2022/09/04 03:52:58;;;;;;;1.73;1.20;;;;;;;11.53;83.46;101347.44;4989624;28;20042;-81
2022/09/04 03:55:46;;;;;;;1.42;1.30;;;;;;;11.51;83.79;101335.97;4986685;28;20041;-81
2022/09/04 03:58:31;;;;;;;1.30;1.20;;;;;;;11.29;83.82;101339.81;4997151;28;20062;-82
2022/09/04 04:01:05;;;;;;;2.50;1.30;;;;;;;11.46;83.54;101344.91;4999128;28;20054;-81
2022/09/04 04:03:42;;;;;;;;;;;;;;;11.33;84.64;101341.53;5005831;28;20491;-80
2022/09/04 04:06:28;;;;;;;1.25;1.13;;;;;;;11.31;85.35;101342.44;4974156;28;19928;-81
2022/09/04 04:09:13;;;;;;;2.35;1.20;;;;;;;11.32;86.35;101349.47;4977197;28;20061;-81
2022/09/04 04:11:49;;;;;;;1.38;1.10;;;;;;;11.29;86.97;101355.69;4990619;28;20045;-82
2022/09/04 04:14:37;;;;;;;1.80;1.23;;;;;;;11.27;87.32;101357.50;4994295;28;20042;-82
2022/09/04 04:17:15;;;;;;;3.00;1.40;;;;;;;11.31;87.39;101351.25;5007550;28;20037;-82
2022/09/04 04:20:03;;;;;;;1.73;1.10;;;;;;;11.18;87.49;101353.19;5010760;28;20571;-82
2022/09/04 04:22:43;;;;;;;1.85;1.30;;;;;;;11.32;85.90;101357.41;4991096;28;20068;-82
2022/09/04 04:25:34;;;;;;;1.98;1.10;;;;;;;11.15;87.04;101353.19;5004439;28;20049;-82
2022/09/04 04:28:15;;;;;;;1.60;1.05;;;;;;;11.03;87.82;101358.66;4994204;28;20052;-81
2022/09/04 04:30:49;;;;;;;1.45;1.20;;;;;;;11.08;88.79;101353.28;4992703;28;20071;-81
2022/09/04 04:33:53;;;;;;;1.40;1.10;;;;;;;10.95;87.83;101352.56;4971912;28;20520;-81
2022/09/04 04:36:35;;;;;;;1.67;1.35;;;;;;;10.87;88.10;101355.28;5008934;28;20133;-82
2022/09/04 04:39:17;;;;;;;2.38;1.30;;;;;;;10.94;88.58;101356.09;5008553;28;20046;-81
2022/09/04 04:42:04;;;;;;;2.15;1.33;;;;;;;10.86;89.25;101368.53;4991416;28;20128;-82
2022/09/04 04:48:15;;;;;;;2.13;1.40;;;;;;;10.76;89.13;101366.84;5007007;28;20623;-83
2022/09/04 04:50:58;;;;;;;1.50;1.40;;;;;;;10.78;90.69;101376.53;5007373;28;20042;-84
2022/09/04 04:53:40;;;;;;;1.33;1.20;;;;;;;10.82;90.45;101372.94;4975091;28;20037;-82
2022/09/04 04:56:45;;;;;;;2.50;1.30;;;;;;;10.70;88.59;101381.88;4989219;28;20045;-82
2022/09/04 04:59:26;;;;;;;2.10;1.30;;;;;;;10.68;91.27;101388.09;4990096;28;20038;-81
2022/09/04 05:02:15;;;;;;;2.03;1.13;;;;;;;10.63;91.23;101396.03;4957446;28;20072;-83
2022/09/04 05:05:12;;;;;;;1.88;1.27;;;;;;;10.64;92.25;101391.63;4988996;28;20725;-82
2022/09/04 05:07:59;;;;;;;1.88;1.20;;;;;;;10.57;92.97;101397.84;5000567;28;20041;-82
2022/09/04 05:10:51;;;;;;;2.50;1.20;;;;;;;10.54;93.02;101397.91;4975890;28;20045;-84
2022/09/04 05:13:38;;;;;;;2.40;1.30;;;;;;;10.51;93.08;101404.09;4992906;28;20042;-82
2022/09/04 05:16:22;;;;;;;1.83;1.33;;;;;;;10.54;93.02;101400.53;5004489;28;20038;-82
2022/09/04 05:18:55;;;;;;;1.77;1.15;;;;;;;10.48;92.23;101409.38;4974935;28;20496;-82
2022/09/04 05:21:30;;;;;;;1.70;1.40;;;;;;;10.44;92.50;101412.94;4975627;28;20125;-83
2022/09/04 05:23:57;;;;;;;;;;;;;;;10.50;93.57;101426.09;4976375;28;20567;-83
2022/09/04 05:26:49;;;;;;;2.38;1.33;;;;;;;10.59;94.04;101423.38;4985402;28;20024;-82
2022/09/04 05:29:43;;;;;;;1.60;1.10;;;;;;;10.58;94.47;101426.03;4986895;28;20042;-82
2022/09/04 05:32:20;;;;;;;1.85;1.40;;;;;;;10.56;93.48;101439.25;4972633;28;20501;-84
2022/09/04 05:35:19;;;;;;;2.55;1.40;;;;;;;10.53;93.54;101436.66;4989224;28;21778;-82
2022/09/04 05:37:57;;;;;;;1.40;1.02;;;;;;;10.57;94.46;101435.72;4987886;28;20045;-85
2022/09/04 05:40:54;;;;;;;1.50;1.05;;;;;;;10.63;95.27;101448.91;5004875;28;20042;-83
2022/09/04 05:43:38;;;;;;;2.03;1.23;;;;;;;11.00;87.51;101443.28;4993632;28;20038;-83
2022/09/04 05:46:13;;;;;;;2.35;1.48;;;;;;;10.96;89.98;101454.78;4988074;28;20041;-83
2022/09/04 05:48:45;;;;;;;2.33;1.60;;;;;;;11.03;90.26;101448.56;4987012;28;20103;-83
2022/09/04 05:51:18;;;;;;;1.40;1.30;;;;;;;11.02;92.38;101449.44;4988239;28;20518;-82
2022/09/04 05:54:30;;;;;;;3.10;1.30;;;;;;;11.14;90.97;101465.19;4990898;28;20527;-81
2022/09/04 05:57:06;;;;;;;2.13;1.67;;;;;;;11.03;92.59;101467.06;4988641;28;20042;-81
2022/09/04 05:59:52;;;;;;;2.50;1.40;;;;;;;11.19;92.28;101460.72;4977448;28;20053;-82
2022/09/04 06:02:43;;;;;;;2.15;1.15;;;;;;;11.32;87.99;101468.53;5003734;28;20042;-83
2022/09/04 06:05:31;;;;;;;2.20;1.52;;;;;;;11.28;92.79;101476.50;4993067;28;20057;-82
2022/09/04 06:08:28;;;;;;;2.95;1.88;;;;;;;11.43;88.53;101471.91;4976359;28;20069;-83
2022/09/04 06:10:58;;;;;;;2.47;1.80;;;;;;;11.68;85.82;101476.03;4987656;28;20053;-82
2022/09/04 06:13:32;;;;;;;1.80;1.50;;;;;;;11.72;85.03;101479.53;4987907;28;20088;-82
2022/09/04 06:16:10;;;;;;;2.38;1.42;;;;;;;11.76;85.67;101484.75;4968857;28;20042;-83
2022/09/04 06:19:28;;;;;;;1.67;1.33;;;;;;;11.89;88.06;101482.00;4991335;28;20049;-83
2022/09/04 06:22:22;;;;;;;2.47;1.73;;;;;;;12.20;85.24;101480.72;4966183;28;20054;-83
2022/09/04 06:25:12;;;;;;;2.35;1.40;;;;;;;13.60;79.97;101479.25;4993749;28;20081;-83
2022/09/04 06:28:04;;;;;;;1.75;1.10;;;;;;;15.47;69.49;101473.94;5004514;28;20035;-83
2022/09/04 06:30:57;;;;;;;2.63;1.45;;;;;;;16.69;62.76;101470.28;5012350;28;20038;-82
2022/09/04 06:34:02;;;;;;;2.70;1.35;;;;;;;17.86;57.39;101470.59;4981473;28;20112;-83
2022/09/04 06:36:44;;;;;;;2.92;1.25;;;;;;;18.69;54.27;101467.38;4979643;28;20037;-82
2022/09/04 06:39:32;;;;;;;3.97;1.25;;;;;;;19.65;51.81;101463.22;5011946;28;20065;-83
2022/09/04 06:42:08;;;;;;;2.70;1.50;;;;;;;19.39;48.46;101469.72;5004830;28;20046;-83
2022/09/04 06:45:08;;;;;;;2.22;1.40;;;;;;;20.15;49.42;101468.91;4978257;28;20045;-82
2022/09/04 06:47:56;;;;;;;2.45;1.48;;;;;;;19.63;48.02;101470.47;4989720;28;20034;-83
2022/09/04 06:50:58;;;;;;;1.70;1.45;;;;;;;18.96;49.55;101470.69;4994233;28;20072;-82
2022/09/04 06:53:43;;;;;;;1.98;1.58;;;;;;;20.04;48.45;101473.91;4993557;28;20104;-83
2022/09/04 06:56:31;;;;;;;2.28;1.38;;;;;;;20.06;49.16;101479.19;4992612;28;20038;-82
2022/09/04 06:59:29;;;;;;;4.22;1.60;;;;;;;20.39;47.77;101482.97;4976750;28;20042;-82
2022/09/04 07:02:34;;;;;;;3.13;1.45;;;;;;;20.61;47.45;101490.88;4988159;28;20045;-83
2022/09/04 07:05:18;;;;;;;1.75;1.35;;;;;;;20.21;45.92;101495.44;4989112;28;20053;-83
2022/09/04 07:08:03;;;;;;;1.63;1.30;;;;;;;20.83;46.07;101503.22;4974464;28;20038;-81
2022/09/04 07:10:32;;;;;;;1.90;1.40;;;;;;;20.89;47.42;101502.94;4990068;28;20042;-83
2022/09/04 07:13:11;;;;;;;4.25;1.77;;;;;;;20.08;46.58;101513.06;4972928;28;20042;-84
2022/09/04 07:16:02;;;;;;;2.28;1.50;;;;;;;20.83;45.38;101512.16;5010094;28;20034;-82
2022/09/04 07:18:36;;;;;;;2.08;1.65;;;;;;;19.61;48.17;101516.09;5012535;28;20049;-83
2022/09/04 07:21:31;;;;;;;3.65;1.90;;;;;;;19.37;50.97;101515.34;5010112;28;20062;-84
2022/09/04 07:24:22;;;;;;;3.58;1.52;;;;;;;19.69;49.12;101510.41;4992433;28;20049;-83
2022/09/04 07:27:14;;;;;;;2.55;1.75;;;;;;;19.81;49.45;101514.31;5004239;28;20507;-83
2022/09/04 07:30:04;;;;;;;2.17;1.50;;;;;;;19.58;50.32;101510.84;4992972;28;20041;-82
2022/09/04 07:32:49;;;;;;;2.83;1.50;;;;;;;18.51;51.94;101509.97;5005701;28;20689;-83
2022/09/04 07:35:25;;;;;;;2.13;1.50;;;;;;;19.11;50.70;101520.94;4992552;28;20447;-81
2022/09/04 07:38:20;;;;;;;2.30;1.60;;;;;;;18.94;51.76;101520.78;4992964;28;20042;-82
2022/09/04 07:40:52;;;;;;;3.28;2.20;;;;;;;18.81;52.35;101517.72;5012374;28;20050;-81
2022/09/04 07:43:22;;;;;;;3.13;1.73;;;;;;;17.94;55.28;101526.47;4958606;28;20030;-84
2022/09/04 07:45:59;;;;;;;2.97;1.80;;;;;;;18.13;55.56;101524.84;4990308;28;20046;-83
2022/09/04 07:48:31;;;;;;;1.98;1.70;;;;;;;18.16;56.55;101521.16;4989328;28;20041;-83
2022/09/04 07:51:08;;;;;;;3.08;1.60;;;;;;;18.08;54.97;101523.28;4978116;28;20990;-82
2022/09/04 07:53:55;;;;;;;2.70;1.90;;;;;;;18.19;56.59;101529.09;4981527;28;20048;-82
2022/09/04 07:56:57;;;;;;;2.13;1.90;;;;;;;17.88;56.50;101527.56;4989871;28;20042;-82
2022/09/04 07:59:50;;;;;;;2.65;2.08;;;;;;;18.01;56.63;101533.34;5006883;28;20038;-83
2022/09/04 08:02:17;;;;;;;4.25;1.90;;;;;;;17.56;56.91;101528.69;4992452;28;20049;-81
2022/09/04 08:04:58;;;;;;;3.05;1.80;;;;;;;17.87;57.07;101532.97;5012675;28;20483;-82
2022/09/04 08:07:36;;;;;;;1.83;1.48;;;;;;;18.02;57.13;101547.56;4993170;28;20034;-82
2022/09/04 08:10:06;;;;;;;2.20;1.90;;;;;;;18.09;58.11;101539.25;4992138;28;20430;-83
2022/09/04 08:12:41;;;;;;;2.00;1.80;;;;;;;18.03;58.46;101544.84;4993697;28;20526;-81
2022/09/04 08:15:20;;;;;;;3.38;2.20;;;;;;;18.02;57.98;101543.09;4993601;28;20053;-83
2022/09/04 08:18:00;;;;;;;2.83;1.77;;;;;;;18.11;57.51;101541.88;5013342;28;20038;-83
2022/09/04 08:20:36;;;;;;;2.63;2.15;;;;;;;18.20;57.25;101544.19;4989480;28;20042;-83
2022/09/04 08:23:18;;;;;;;4.35;2.33;;;;;;;17.99;57.00;101538.75;5019325;28;20245;-83
2022/09/04 08:25:53;;;;;;;2.55;1.90;;;;;;;18.12;57.68;101551.63;4986623;28;20042;-82
2022/09/04 08:28:32;;;;;;;3.25;1.90;;;;;;;17.99;57.98;101543.19;5003616;28;20124;-84
2022/09/04 08:31:09;;;;;;;2.40;1.60;;;;;;;18.04;59.31;101549.25;5013054;28;20503;-82
2022/09/04 08:34:07;;;;;;;5.57;2.00;;;;;;;17.90;58.04;101549.75;4977939;28;20045;-83
2022/09/04 08:36:40;;;;;;;5.55;2.10;;;;;;;18.13;59.63;101537.34;4990829;28;20034;-83
2022/09/04 08:39:21;;;;;;;2.80;2.17;;;;;;;18.14;57.67;101541.75;4989060;28;20042;-83
2022/09/04 08:42:33;;;;;;;2.92;2.17;;;;;;;18.24;57.02;101538.69;4991253;28;20507;-85
2022/09/04 08:45:19;;;;;;;3.67;2.30;;;;;;;18.18;58.80;101536.25;5004750;28;20056;-82
2022/09/04 08:48:13;;;;;;;3.83;2.17;;;;;;;18.32;58.67;101538.38;4987281;28;20648;-83
2022/09/04 08:51:10;;;;;;;2.70;2.30;;;;;;;18.25;58.04;101543.09;4987543;28;20046;-83
2022/09/04 08:54:04;;;;;;;4.95;2.80;;;;;;;18.48;59.49;101544.00;4987499;28;20057;-84
2022/09/04 08:56:48;;;;;;;2.80;2.28;;;;;;;18.76;58.09;101546.50;4986928;28;20038;-84
2022/09/04 08:59:39;;;;;;;2.92;2.17;;;;;;;19.17;56.55;101542.13;5009662;28;20118;-83
2022/09/04 09:02:41;;;;;;;3.33;2.50;;;;;;;19.64;55.56;101541.88;4987513;28;20049;-83
2022/09/04 09:05:27;;;;;;;3.50;2.58;;;;;;;19.92;54.82;101542.38;5003486;28;20100;-83
2022/09/04 09:08:05;;;;;;;3.50;2.55;;;;;;;20.16;54.38;101540.41;4971277;28;20041;-83
2022/09/04 09:11:02;;;;;;;3.00;2.28;;;;;;;20.32;54.15;101545.06;4975867;28;20042;-84
2022/09/04 09:13:54;;;;;;;4.22;2.47;;;;;;;20.43;53.50;101542.72;4992620;28;20053;-84
2022/09/04 09:16:51;;;;;;;4.38;2.53;;;;;;;20.35;52.38;101545.78;4992667;28;20061;-83
2022/09/04 09:19:23;;;;;;;2.85;2.22;;;;;;;20.65;54.24;101543.47;4995580;28;20046;-84
2022/09/04 09:22:09;;;;;;;3.15;2.30;;;;;;;20.95;51.56;101551.00;4988832;28;20042;-82
2022/09/04 09:24:52;;;;;;;4.75;2.58;;;;;;;21.25;53.31;101532.44;4973825;28;20072;-83
2022/09/04 09:27:55;;;;;;;4.47;2.90;;;;;;;21.39;49.89;101535.34;4979723;28;20034;-83
2022/09/04 09:30:22;;;;;;;4.70;2.72;;;;;;;21.55;50.09;101543.47;4989864;28;20045;-84
2022/09/04 09:33:07;;;;;;;2.88;2.55;;;;;;;21.25;49.23;101533.31;4984711;28;20077;-83
2022/09/04 09:35:53;;;;;;;3.22;2.60;;;;;;;21.64;51.00;101533.09;4989956;28;20049;-83
2022/09/04 09:38:35;;;;;;;3.80;2.85;;;;;;;21.37;49.34;101522.94;5010867;28;20088;-85
2022/09/04 09:41:08;;;;;;;4.45;2.60;;;;;;;21.76;51.15;101525.31;5008882;28;20125;-83
2022/09/04 09:43:55;;;;;;;4.30;3.05;;;;;;;21.73;49.26;101525.50;5008255;28;20065;-84
2022/09/04 09:46:44;;;;;;;4.20;3.08;;;;;;;22.11;48.64;101520.75;4999098;28;20138;-85
2022/09/04 09:49:34;;;;;;;3.67;2.70;;;;;;;22.10;48.39;101521.69;5061293;23;20065;-80
2022/09/04 09:52:08;;;;;;;5.50;2.95;;;;;;;22.40;48.67;101533.47;4987638;28;20089;-78
2022/09/04 09:54:58;;;;;;;4.18;3.20;;;;;;;22.58;45.79;101541.47;4953939;28;20046;-78
2022/09/04 09:57:53;;;;;;;4.82;3.38;;;;;;;22.35;46.08;101535.53;4957097;28;20058;-79
2022/09/04 10:00:24;;;;;;;4.22;2.95;;;;;;;22.51;46.68;101534.69;4965831;28;20050;-78
2022/09/04 10:03:23;;;;;;;3.40;3.10;;;;;;;23.01;46.60;101537.19;4966507;28;20494;-78
2022/09/04 10:05:50;;;;;;;5.00;3.15;;;;;;;22.96;46.48;101534.78;4974480;28;20100;-78
2022/09/04 10:08:51;;;;;;;3.67;3.25;;;;;;;22.89;45.31;101535.25;4973847;28;20130;-77
2022/09/04 10:11:35;;;;;;;3.50;3.20;;;;;;;23.02;47.14;101539.81;4954538;28;20046;-77
2022/09/04 10:14:19;;;;;;;4.50;3.22;;;;;;;23.19;46.41;101533.41;4977746;28;20089;-78
2022/09/04 10:17:28;;;;;;;14.73;4.32;;;;;;;23.14;47.72;101531.97;4989673;28;20038;-78
2022/09/04 10:20:35;;;;;;;5.60;3.60;;;;;;;23.45;47.55;101530.97;4971728;28;20058;-79
2022/09/04 10:23:35;;;;;;;4.65;3.40;;;;;;;23.09;44.61;101531.38;4990479;28;20062;-77
2022/09/04 10:26:16;;;;;;;4.85;3.53;;;;;;;22.71;45.42;101539.81;4992393;28;20042;-78
2022/09/04 10:29:00;;;;;;;5.05;3.50;;;;;;;23.31;45.70;101538.09;4968992;28;20117;-77
2022/09/04 10:31:34;;;;;;;3.67;2.97;;;;;;;23.34;44.25;101534.34;4981650;28;20048;-78
2022/09/04 10:34:03;;;;;;;;;;;;;;;23.12;44.67;101537.47;4974280;28;20039;-78
2022/09/04 10:36:44;;;;;;;5.13;3.45;;;;;;;23.34;44.28;101537.03;4996561;28;19946;-76
2022/09/04 10:42:40;;;;;;;5.25;3.92;;;;;;;22.98;42.75;101532.88;4972756;28;20046;-77
2022/09/04 10:45:25;;;;;;;29.77;27.52;;;;;;;23.40;45.05;101535.81;4945529;28;20053;-77
2022/09/04 10:48:01;;;;;;;9.20;5.80;;;;;;;23.48;42.85;101537.09;4968022;28;20125;-78
2022/09/04 10:50:47;;;;;;;5.20;3.45;;;;;;;23.42;43.65;101539.28;4993082;28;20062;-77
2022/09/04 10:53:48;;;;;;;5.72;4.45;;;;;;;23.59;43.73;101542.72;4972791;28;20081;-79
2022/09/04 10:56:21;;;;;;;5.15;3.58;;;;;;;23.54;44.04;101525.94;4974320;28;20544;-77
2022/09/04 10:59:11;;;;;;;5.15;3.63;;;;;;;23.26;41.99;101540.19;4968554;28;20707;-78
2022/09/04 11:01:57;;;;;;;5.43;3.92;;;;;;;23.06;43.21;101542.34;4988357;28;20061;-79
2022/09/04 11:04:44;;;;;;;4.68;4.03;;;;;;;23.75;42.61;101537.25;4988441;28;20058;-78
2022/09/04 11:07:29;;;;;;;5.90;3.60;;;;;;;23.82;41.77;101535.91;4967180;28;20062;-77
2022/09/04 11:10:19;;;;;;;4.95;3.70;;;;;;;23.46;41.41;101536.31;4969643;28;20535;-77
2022/09/04 11:13:25;;;;;;;4.35;3.53;;;;;;;23.24;44.05;101536.72;4968983;28;20496;-77
2022/09/04 13:57:17;;;;;;;6.85;3.38;;;;;;;22.54;42.54;101516.56;5121172;27;21150;-79
2022/09/04 14:00:06;;;;;;;4.07;3.30;;;;;;;22.73;44.48;101513.66;5087647;28;20408;-80
2022/09/04 14:02:35;;;;;;;4.72;3.75;;;;;;;22.94;43.74;101508.88;5087612;28;20055;-80
2022/09/04 14:05:12;;;;;;;3.95;3.42;;;;;;;23.25;41.73;101511.50;5066173;28;20035;-80
2022/09/04 14:07:46;;;;;;;7.22;3.80;;;;;;;23.19;40.41;101521.75;5049332;28;20163;-80
2022/09/04 14:10:24;;;;;;;3.75;3.42;;;;;;;23.17;39.71;101518.31;5075032;28;20042;-81
2022/09/04 14:13:27;;;;;;;3.83;3.13;;;;;;;23.22;38.71;101518.91;5067094;28;20512;-81
2022/09/04 14:16:00;;;;;;;5.20;3.75;;;;;;;23.31;38.79;101521.91;5071254;28;20056;-80
2022/09/04 14:19:01;;;;;;;4.68;3.25;;;;;;;23.48;39.19;101511.94;5057154;28;20048;-80
2022/09/04 14:21:47;;;;;;;4.35;3.10;;;;;;;23.71;40.01;101524.94;5072723;28;20043;-79
2022/09/04 14:24:31;;;;;;;4.53;3.45;;;;;;;23.99;39.43;101524.06;5100322;28;20052;-79
2022/09/04 14:27:04;;;;;;;4.15;3.75;;;;;;;23.33;37.57;101529.91;5085158;28;20071;-79
2022/09/04 14:29:43;;;;;;;4.07;3.33;;;;;;;23.71;38.84;101535.72;5089222;28;20070;-79
2022/09/04 14:32:20;;;;;;;4.57;3.70;;;;;;;23.64;38.18;101528.09;5074070;28;20094;-80
2022/09/04 14:35:11;;;;;;;4.22;3.22;;;;;;;23.62;38.06;101530.00;5081483;28;20489;-80
2022/09/04 14:38:26;;;;;;;4.85;3.17;;;;;;;23.28;38.55;101526.59;5084720;28;20048;-80
2022/09/04 14:40:57;;;;;;;7.72;3.35;;;;;;;23.52;39.04;101519.72;5079247;28;20048;-80
2022/09/04 14:44:02;;;;;;;4.43;2.75;;;;;;;23.75;38.37;101520.19;5016884;28;20544;-80
2022/09/04 14:46:40;;;;;;;3.80;3.33;;;;;;;23.85;38.61;101515.94;5082419;28;20059;-80
2022/09/04 14:49:15;;;;;;;4.18;3.60;;;;;;;23.65;36.75;101519.03;5088302;28;20039;-79
2022/09/04 14:51:45;;;;;;;4.18;3.28;;;;;;;23.75;37.38;101521.06;5084098;28;20040;-79
2022/09/04 14:54:23;;;;;;;5.05;3.13;;;;;;;23.74;38.29;101524.72;5056040;28;20040;-81
2022/09/04 14:56:57;;;;;;;3.90;2.92;;;;;;;23.87;37.51;101528.38;5049342;28;20118;-81
2022/09/04 14:59:35;;;;;;;3.38;3.08;;;;;;;23.71;36.62;101518.63;5051167;28;20040;-80
2022/09/04 15:02:09;;;;;;;4.22;3.42;;;;;;;23.76;36.49;101516.53;5088969;28;20405;-81
2022/09/04 15:04:53;;;;;;;4.15;3.30;;;;;;;23.75;37.59;101521.06;5091468;28;21685;-81
2022/09/04 15:07:27;;;;;;;6.53;3.58;;;;;;;23.37;38.70;101519.78;5059777;28;20099;-80
2022/09/04 15:10:05;;;;;;;4.10;3.15;;;;;;;23.72;37.19;101518.56;5062419;28;20123;-81
2022/09/04 15:12:36;;;;;;;4.05;3.03;;;;;;;23.79;39.64;101525.28;5068266;28;20040;-80
2022/09/04 15:15:15;;;;;;;6.82;3.58;;;;;;;23.88;38.12;101523.88;5050205;28;20047;-81
2022/09/04 15:18:06;;;;;;;3.58;3.13;;;;;;;23.72;38.12;101515.88;5053398;28;20549;-81
2022/09/04 15:20:43;;;;;;;5.50;3.67;;;;;;;23.93;37.93;101519.03;5047305;28;20048;-80
2022/09/04 15:23:31;;;;;;;4.72;3.03;;;;;;;23.81;37.84;101515.28;5045965;28;20036;-81
2022/09/04 15:26:21;;;;;;;3.72;3.20;;;;;;;23.71;37.09;101515.94;5060790;28;20072;-79
2022/09/04 15:29:10;;;;;;;4.47;3.05;;;;;;;23.75;37.98;101520.19;5074229;28;20139;-81
2022/09/04 15:31:41;;;;;;;4.25;3.20;;;;;;;23.80;37.27;101516.25;5086298;28;20424;-79
2022/09/04 15:34:13;;;;;;;4.85;3.28;;;;;;;23.57;37.43;101517.63;5080543;28;20048;-80
2022/09/04 15:36:43;;;;;;;3.90;2.78;;;;;;;23.26;38.00;101513.22;5059214;28;20458;-81